sensor_id;sensor_type;location;lat;lon;timestamp;pressure;altitude;pressure_sealevel;temperature;humidity
41947;BME280;27638;42.184;24.848;2023-03-21T00:01:18;99839.63;;;13.18;59.51
41947;BME280;27638;42.184;24.848;2023-03-21T00:03:43;99841.94;;;13.21;59.69
41947;BME280;27638;42.184;24.848;2023-03-21T00:06:11;99838.81;;;13.18;59.14
41947;BME280;27638;42.184;24.848;2023-03-21T00:08:38;99834.50;;;13.17;60.08
41947;BME280;27638;42.184;24.848;2023-03-21T00:11:06;99825.97;;;13.21;59.55
41947;BME280;27638;42.184;24.848;2023-03-21T00:13:32;99829.28;;;13.23;59.56
41947;BME280;27638;42.184;24.848;2023-03-21T00:16:05;99824.34;;;13.12;59.21
41947;BME280;27638;42.184;24.848;2023-03-21T00:18:31;99815.69;;;12.48;60.36
41947;BME280;27638;42.184;24.848;2023-03-21T00:20:58;99812.75;;;11.79;62.64
41947;BME280;27638;42.184;24.848;2023-03-21T00:23:25;99826.00;;;11.96;62.17
41947;BME280;27638;42.184;24.848;2023-03-21T00:25:51;99825.63;;;12.07;62.44
41947;BME280;27638;42.184;24.848;2023-03-21T00:28:16;99819.66;;;12.13;62.67
41947;BME280;27638;42.184;24.848;2023-03-21T00:30:42;99804.50;;;12.30;62.50
41947;BME280;27638;42.184;24.848;2023-03-21T00:33:07;99809.56;;;12.00;62.99
41947;BME280;27638;42.184;24.848;2023-03-21T00:35:33;99802.09;;;11.96;63.51
41947;BME280;27638;42.184;24.848;2023-03-21T00:37:58;99795.75;;;12.13;62.90
41947;BME280;27638;42.184;24.848;2023-03-21T00:40:23;99796.22;;;12.25;61.48
41947;BME280;27638;42.184;24.848;2023-03-21T00:42:49;99799.66;;;12.33;62.42
41947;BME280;27638;42.184;24.848;2023-03-21T00:45:15;99799.47;;;12.43;61.64
41947;BME280;27638;42.184;24.848;2023-03-21T00:47:40;99795.44;;;12.55;61.49
41947;BME280;27638;42.184;24.848;2023-03-21T00:50:06;99796.06;;;12.65;60.34
41947;BME280;27638;42.184;24.848;2023-03-21T00:52:32;99791.28;;;12.61;60.59
41947;BME280;27638;42.184;24.848;2023-03-21T00:54:57;99781.13;;;12.64;60.51
41947;BME280;27638;42.184;24.848;2023-03-21T00:57:23;99772.69;;;12.61;60.88
41947;BME280;27638;42.184;24.848;2023-03-21T00:59:48;99768.53;;;12.58;61.45
41947;BME280;27638;42.184;24.848;2023-03-21T01:02:14;99762.50;;;12.33;62.04
41947;BME280;27638;42.184;24.848;2023-03-21T01:04:54;99764.81;;;11.89;63.31
41947;BME280;27638;42.184;24.848;2023-03-21T01:07:19;99767.97;;;11.68;64.12
41947;BME280;27638;42.184;24.848;2023-03-21T01:09:45;99762.34;;;11.71;65.44
41947;BME280;27638;42.184;24.848;2023-03-21T01:12:10;99759.34;;;11.91;64.23
41947;BME280;27638;42.184;24.848;2023-03-21T01:14:36;99766.94;;;12.02;63.58
41947;BME280;27638;42.184;24.848;2023-03-21T01:17:02;99760.25;;;12.14;63.58
41947;BME280;27638;42.184;24.848;2023-03-21T01:19:28;99760.53;;;12.27;62.43
41947;BME280;27638;42.184;24.848;2023-03-21T01:21:55;99759.69;;;12.27;62.61
41947;BME280;27638;42.184;24.848;2023-03-21T01:24:21;99759.53;;;12.28;62.75
41947;BME280;27638;42.184;24.848;2023-03-21T01:26:46;99750.56;;;12.29;62.74
41947;BME280;27638;42.184;24.848;2023-03-21T01:29:12;99749.34;;;12.40;62.80
41947;BME280;27638;42.184;24.848;2023-03-21T01:31:37;99743.03;;;12.49;62.13
41947;BME280;27638;42.184;24.848;2023-03-21T01:34:03;99741.19;;;12.50;62.44
41947;BME280;27638;42.184;24.848;2023-03-21T01:36:29;99739.41;;;12.34;63.37
41947;BME280;27638;42.184;24.848;2023-03-21T01:38:54;99737.22;;;12.06;65.82
41947;BME280;27638;42.184;24.848;2023-03-21T01:41:31;99737.94;;;11.76;66.17
41947;BME280;27638;42.184;24.848;2023-03-21T01:43:57;99729.53;;;11.40;68.18
41947;BME280;27638;42.184;24.848;2023-03-21T01:49:02;99724.59;;;11.12;70.45
41947;BME280;27638;42.184;24.848;2023-03-21T01:51:32;99730.88;;;11.11;70.31
41947;BME280;27638;42.184;24.848;2023-03-21T01:53:59;99726.25;;;11.05;69.91
41947;BME280;27638;42.184;24.848;2023-03-21T01:56:30;99726.56;;;11.18;69.64
41947;BME280;27638;42.184;24.848;2023-03-21T02:00:04;99716.94;;;11.42;68.32
41947;BME280;27638;42.184;24.848;2023-03-21T02:02:00;99722.88;;;11.68;67.74
41947;BME280;27638;42.184;24.848;2023-03-21T02:04:32;99719.06;;;11.79;66.57
41947;BME280;27638;42.184;24.848;2023-03-21T02:07:11;99707.13;;;11.67;66.62
41947;BME280;27638;42.184;24.848;2023-03-21T02:09:40;99709.47;;;11.62;66.20
41947;BME280;27638;42.184;24.848;2023-03-21T02:12:07;99701.00;;;11.66;65.43
41947;BME280;27638;42.184;24.848;2023-03-21T02:14:35;99706.00;;;11.61;65.64
41947;BME280;27638;42.184;24.848;2023-03-21T02:28:15;99706.38;;;10.93;70.91
41947;BME280;27638;42.184;24.848;2023-03-21T02:31:03;99703.03;;;10.67;72.84
41947;BME280;27638;42.184;24.848;2023-03-21T02:41:32;99701.72;;;10.79;73.79
41947;BME280;27638;42.184;24.848;2023-03-21T02:44:10;99708.16;;;10.60;75.74
41947;BME280;27638;42.184;24.848;2023-03-21T02:46:47;99706.53;;;10.92;74.71
41947;BME280;27638;42.184;24.848;2023-03-21T02:49:23;99706.88;;;11.05;74.06
41947;BME280;27638;42.184;24.848;2023-03-21T02:51:52;99720.28;;;11.19;74.38
41947;BME280;27638;42.184;24.848;2023-03-21T02:54:22;99721.09;;;11.28;74.87
41947;BME280;27638;42.184;24.848;2023-03-21T02:56:50;99723.91;;;11.51;74.00
41947;BME280;27638;42.184;24.848;2023-03-21T02:59:18;99727.34;;;11.68;73.28
41947;BME280;27638;42.184;24.848;2023-03-21T03:01:45;99720.91;;;11.78;72.12
41947;BME280;27638;42.184;24.848;2023-03-21T03:04:25;99729.28;;;11.98;71.65
41947;BME280;27638;42.184;24.848;2023-03-21T03:15:18;99724.94;;;12.05;70.14
41947;BME280;27638;42.184;24.848;2023-03-21T03:26:15;99725.06;;;12.20;70.25
41947;BME280;27638;42.184;24.848;2023-03-21T03:28:46;99731.19;;;12.21;70.46
41947;BME280;27638;42.184;24.848;2023-03-21T03:31:15;99731.75;;;12.08;70.52
41947;BME280;27638;42.184;24.848;2023-03-21T03:33:48;99729.97;;;11.92;71.44
41947;BME280;27638;42.184;24.848;2023-03-21T03:36:16;99730.59;;;12.02;70.88
41947;BME280;27638;42.184;24.848;2023-03-21T03:38:45;99741.25;;;11.94;70.81
41947;BME280;27638;42.184;24.848;2023-03-21T03:41:18;99736.44;;;11.90;70.79
41947;BME280;27638;42.184;24.848;2023-03-21T03:43:51;99733.31;;;11.70;72.03
41947;BME280;27638;42.184;24.848;2023-03-21T03:46:46;99732.16;;;11.72;71.22
41947;BME280;27638;42.184;24.848;2023-03-21T03:49:28;99731.00;;;11.75;71.27
41947;BME280;27638;42.184;24.848;2023-03-21T03:52:04;99738.13;;;11.66;71.14
41947;BME280;27638;42.184;24.848;2023-03-21T03:54:39;99727.53;;;11.58;70.90
41947;BME280;27638;42.184;24.848;2023-03-21T03:57:07;99725.06;;;11.57;71.17
41947;BME280;27638;42.184;24.848;2023-03-21T03:59:37;99730.69;;;11.54;71.69
41947;BME280;27638;42.184;24.848;2023-03-21T04:02:02;99736.66;;;11.56;71.48
41947;BME280;27638;42.184;24.848;2023-03-21T04:04:28;99731.00;;;11.67;70.16
41947;BME280;27638;42.184;24.848;2023-03-21T04:06:56;99726.69;;;11.66;70.21
41947;BME280;27638;42.184;24.848;2023-03-21T04:09:21;99723.38;;;11.80;69.95
41947;BME280;27638;42.184;24.848;2023-03-21T04:11:47;99716.56;;;11.86;68.73
41947;BME280;27638;42.184;24.848;2023-03-21T04:14:13;99720.19;;;11.93;68.47
41947;BME280;27638;42.184;24.848;2023-03-21T04:16:39;99728.00;;;11.86;67.44
41947;BME280;27638;42.184;24.848;2023-03-21T04:19:04;99726.50;;;11.92;66.84
41947;BME280;27638;42.184;24.848;2023-03-21T04:21:29;99725.66;;;11.91;67.12
41947;BME280;27638;42.184;24.848;2023-03-21T04:23:56;99735.31;;;11.84;67.42
41947;BME280;27638;42.184;24.848;2023-03-21T04:26:21;99739.13;;;11.81;66.15
41947;BME280;27638;42.184;24.848;2023-03-21T04:28:48;99741.78;;;11.81;65.96
41947;BME280;27638;42.184;24.848;2023-03-21T04:31:13;99744.59;;;11.80;67.42
41947;BME280;27638;42.184;24.848;2023-03-21T04:33:39;99745.63;;;11.55;68.93
41947;BME280;27638;42.184;24.848;2023-03-21T04:36:06;99747.28;;;11.56;69.36
41947;BME280;27638;42.184;24.848;2023-03-21T04:38:33;99748.44;;;11.45;69.06
41947;BME280;27638;42.184;24.848;2023-03-21T04:41:00;99748.44;;;11.45;69.47
41947;BME280;27638;42.184;24.848;2023-03-21T04:43:26;99749.25;;;11.62;69.55
41947;BME280;27638;42.184;24.848;2023-03-21T04:45:53;99740.63;;;11.68;68.23
41947;BME280;27638;42.184;24.848;2023-03-21T04:48:18;99752.72;;;11.70;67.40
41947;BME280;27638;42.184;24.848;2023-03-21T04:50:45;99759.84;;;11.62;65.81
41947;BME280;27638;42.184;24.848;2023-03-21T04:53:11;99761.66;;;11.69;64.88
41947;BME280;27638;42.184;24.848;2023-03-21T04:55:37;99764.50;;;11.68;64.04
41947;BME280;27638;42.184;24.848;2023-03-21T04:58:03;99765.97;;;11.70;64.94
41947;BME280;27638;42.184;24.848;2023-03-21T05:00:28;99767.16;;;11.68;64.56
41947;BME280;27638;42.184;24.848;2023-03-21T05:02:54;99765.00;;;11.63;64.56
41947;BME280;27638;42.184;24.848;2023-03-21T05:05:22;99767.47;;;11.65;65.31
41947;BME280;27638;42.184;24.848;2023-03-21T05:07:48;99765.16;;;11.70;65.04
41947;BME280;27638;42.184;24.848;2023-03-21T05:10:13;99770.78;;;11.75;65.00
41947;BME280;27638;42.184;24.848;2023-03-21T05:12:39;99770.94;;;11.73;65.73
41947;BME280;27638;42.184;24.848;2023-03-21T05:15:05;99764.34;;;11.61;66.86
41947;BME280;27638;42.184;24.848;2023-03-21T05:17:30;99759.00;;;11.69;67.33
41947;BME280;27638;42.184;24.848;2023-03-21T05:19:56;99770.94;;;11.90;67.49
41947;BME280;27638;42.184;24.848;2023-03-21T05:22:22;99773.22;;;12.01;66.72
41947;BME280;27638;42.184;24.848;2023-03-21T05:24:49;99769.06;;;12.06;67.63
41947;BME280;27638;42.184;24.848;2023-03-21T05:27:16;99772.72;;;12.05;68.26
41947;BME280;27638;42.184;24.848;2023-03-21T05:30:08;99774.38;;;12.06;68.96
41947;BME280;27638;42.184;24.848;2023-03-21T05:32:34;99764.47;;;11.92;69.63
41947;BME280;27638;42.184;24.848;2023-03-21T05:35:00;99769.13;;;11.74;71.97
41947;BME280;27638;42.184;24.848;2023-03-21T05:37:26;99770.28;;;11.31;74.42
41947;BME280;27638;42.184;24.848;2023-03-21T05:39:52;99756.22;;;11.22;76.48
41947;BME280;27638;42.184;24.848;2023-03-21T05:42:17;99765.47;;;10.94;78.07
41947;BME280;27638;42.184;24.848;2023-03-21T05:44:43;99762.78;;;10.69;81.53
41947;BME280;27638;42.184;24.848;2023-03-21T05:47:14;99756.97;;;10.58;81.79
41947;BME280;27638;42.184;24.848;2023-03-21T05:49:40;99757.69;;;10.84;80.64
41947;BME280;27638;42.184;24.848;2023-03-21T05:52:06;99765.75;;;10.58;83.40
41947;BME280;27638;42.184;24.848;2023-03-21T05:54:31;99757.13;;;10.56;83.36
41947;BME280;27638;42.184;24.848;2023-03-21T05:56:57;99760.63;;;10.22;86.57
41947;BME280;27638;42.184;24.848;2023-03-21T05:59:22;99763.94;;;10.24;87.55
41947;BME280;27638;42.184;24.848;2023-03-21T06:01:48;99775.69;;;10.22;89.54
41947;BME280;27638;42.184;24.848;2023-03-21T06:04:13;99771.06;;;10.24;89.03
41947;BME280;27638;42.184;24.848;2023-03-21T06:06:39;99780.09;;;10.47;88.78
41947;BME280;27638;42.184;24.848;2023-03-21T06:09:04;99771.06;;;10.24;90.12
41947;BME280;27638;42.184;24.848;2023-03-21T06:11:34;99785.38;;;10.13;90.86
41947;BME280;27638;42.184;24.848;2023-03-21T06:14:00;99777.44;;;10.13;91.46
41947;BME280;27638;42.184;24.848;2023-03-21T06:16:25;99774.53;;;10.24;91.37
41947;BME280;27638;42.184;24.848;2023-03-21T06:18:53;99771.06;;;10.24;90.86
41947;BME280;27638;42.184;24.848;2023-03-21T06:21:19;99762.34;;;10.40;90.81
41947;BME280;27638;42.184;24.848;2023-03-21T06:23:45;99765.41;;;10.53;90.55
41947;BME280;27638;42.184;24.848;2023-03-21T06:26:11;99768.75;;;10.71;90.11
41947;BME280;27638;42.184;24.848;2023-03-21T06:28:37;99764.44;;;10.62;90.16
41947;BME280;27638;42.184;24.848;2023-03-21T06:31:03;99767.09;;;10.78;90.33
41947;BME280;27638;42.184;24.848;2023-03-21T06:33:28;99765.59;;;10.68;89.96
41947;BME280;27638;42.184;24.848;2023-03-21T06:35:56;99764.97;;;10.90;89.08
41947;BME280;27638;42.184;24.848;2023-03-21T06:38:23;99764.13;;;10.81;91.63
41947;BME280;27638;42.184;24.848;2023-03-21T06:40:49;99763.66;;;10.86;90.86
41947;BME280;27638;42.184;24.848;2023-03-21T06:43:15;99768.94;;;10.86;90.50
41947;BME280;27638;42.184;24.848;2023-03-21T06:45:41;99763.16;;;10.91;90.92
41947;BME280;27638;42.184;24.848;2023-03-21T06:48:07;99765.16;;;11.05;90.19
41947;BME280;27638;42.184;24.848;2023-03-21T06:50:32;99763.50;;;11.20;90.04
41947;BME280;27638;42.184;24.848;2023-03-21T06:52:58;99762.34;;;11.23;89.34
41947;BME280;27638;42.184;24.848;2023-03-21T06:55:24;99761.03;;;11.35;89.14
41947;BME280;27638;42.184;24.848;2023-03-21T06:57:55;99758.69;;;11.15;88.18
41947;BME280;27638;42.184;24.848;2023-03-21T07:00:21;99759.34;;;11.42;88.19
41947;BME280;27638;42.184;24.848;2023-03-21T07:02:47;99758.56;;;11.49;86.80
41947;BME280;27638;42.184;24.848;2023-03-21T07:05:13;99760.53;;;11.47;88.18
41947;BME280;27638;42.184;24.848;2023-03-21T07:07:39;99769.78;;;11.68;87.01
41947;BME280;27638;42.184;24.848;2023-03-21T07:10:06;99770.63;;;11.85;86.52
41947;BME280;27638;42.184;24.848;2023-03-21T07:12:32;99775.59;;;11.79;86.63
41947;BME280;27638;42.184;24.848;2023-03-21T07:15:03;99774.19;;;12.08;84.35
41947;BME280;27638;42.184;24.848;2023-03-21T07:17:29;99769.91;;;12.07;83.37
41947;BME280;27638;42.184;24.848;2023-03-21T07:19:55;99772.59;;;11.74;86.13
41947;BME280;27638;42.184;24.848;2023-03-21T07:22:20;99771.56;;;12.08;85.48
41947;BME280;27638;42.184;24.848;2023-03-21T07:24:46;99763.75;;;12.06;84.77
41947;BME280;27638;42.184;24.848;2023-03-21T07:27:13;99773.00;;;12.19;85.16
41947;BME280;27638;42.184;24.848;2023-03-21T07:29:39;99771.41;;;12.40;82.87
41947;BME280;27638;42.184;24.848;2023-03-21T07:32:06;99768.63;;;12.34;82.49
41947;BME280;27638;42.184;24.848;2023-03-21T07:34:31;99769.53;;;12.57;83.50
41947;BME280;27638;42.184;24.848;2023-03-21T07:36:58;99766.03;;;12.88;81.52
41947;BME280;27638;42.184;24.848;2023-03-21T07:39:25;99771.56;;;13.32;77.98
41947;BME280;27638;42.184;24.848;2023-03-21T07:41:50;99766.16;;;13.63;76.47
41947;BME280;27638;42.184;24.848;2023-03-21T07:44:15;99757.66;;;13.97;75.06
41947;BME280;27638;42.184;24.848;2023-03-21T07:46:41;99761.94;;;14.27;73.49
41947;BME280;27638;42.184;24.848;2023-03-21T07:49:06;99762.41;;;14.31;72.35
41947;BME280;27638;42.184;24.848;2023-03-21T07:51:33;99754.22;;;14.47;72.07
41947;BME280;27638;42.184;24.848;2023-03-21T07:54:00;99759.81;;;14.67;71.03
41947;BME280;27638;42.184;24.848;2023-03-21T07:56:26;99760.34;;;14.77;70.68
41947;BME280;27638;42.184;24.848;2023-03-21T07:58:52;99758.19;;;14.51;70.58
41947;BME280;27638;42.184;24.848;2023-03-21T08:01:17;99747.31;;;14.53;70.66
41947;BME280;27638;42.184;24.848;2023-03-21T08:03:43;99752.66;;;14.38;72.79
41947;BME280;27638;42.184;24.848;2023-03-21T08:06:09;99756.81;;;14.26;71.93
41947;BME280;27638;42.184;24.848;2023-03-21T08:08:34;99746.97;;;14.26;72.81
41947;BME280;27638;42.184;24.848;2023-03-21T08:11:00;99747.88;;;14.48;72.40
41947;BME280;27638;42.184;24.848;2023-03-21T08:13:25;99749.28;;;14.59;71.03
41947;BME280;27638;42.184;24.848;2023-03-21T08:15:52;99753.78;;;14.29;71.92
41947;BME280;27638;42.184;24.848;2023-03-21T08:18:17;99746.31;;;14.39;71.78
41947;BME280;27638;42.184;24.848;2023-03-21T08:20:43;99742.28;;;14.28;72.30
41947;BME280;27638;42.184;24.848;2023-03-21T08:23:08;99744.84;;;14.36;71.13
41947;BME280;27638;42.184;24.848;2023-03-21T08:25:33;99737.50;;;14.53;70.61
41947;BME280;27638;42.184;24.848;2023-03-21T08:27:59;99740.28;;;14.81;69.94
41947;BME280;27638;42.184;24.848;2023-03-21T08:30:27;99740.72;;;14.63;70.16
41947;BME280;27638;42.184;24.848;2023-03-21T08:32:59;99741.63;;;14.71;69.12
41947;BME280;27638;42.184;24.848;2023-03-21T08:35:25;99737.63;;;14.81;68.34
41947;BME280;27638;42.184;24.848;2023-03-21T08:37:52;99737.03;;;14.64;67.98
41947;BME280;27638;42.184;24.848;2023-03-21T08:40:18;99743.16;;;14.80;67.74
41947;BME280;27638;42.184;24.848;2023-03-21T08:42:45;99751.22;;;14.86;67.00
41947;BME280;27638;42.184;24.848;2023-03-21T08:45:11;99753.00;;;15.00;65.02
41947;BME280;27638;42.184;24.848;2023-03-21T08:47:38;99739.47;;;15.02;64.83
41947;BME280;27638;42.184;24.848;2023-03-21T08:50:05;99739.25;;;15.25;63.02
41947;BME280;27638;42.184;24.848;2023-03-21T08:52:31;99730.06;;;15.27;62.25
41947;BME280;27638;42.184;24.848;2023-03-21T08:54:57;99731.38;;;15.38;61.57
41947;BME280;27638;42.184;24.848;2023-03-21T08:57:22;99726.09;;;15.45;61.73
41947;BME280;27638;42.184;24.848;2023-03-21T08:59:48;99731.09;;;15.54;61.53
41947;BME280;27638;42.184;24.848;2023-03-21T09:02:15;99734.69;;;15.61;61.73
41947;BME280;27638;42.184;24.848;2023-03-21T09:04:41;99724.88;;;15.69;62.71
41947;BME280;27638;42.184;24.848;2023-03-21T09:07:08;99723.41;;;15.66;63.22
41947;BME280;27638;42.184;24.848;2023-03-21T09:09:35;99718.38;;;15.56;62.24
41947;BME280;27638;42.184;24.848;2023-03-21T09:12:01;99719.97;;;15.72;61.71
41947;BME280;27638;42.184;24.848;2023-03-21T09:14:27;99721.84;;;15.78;61.57
41947;BME280;27638;42.184;24.848;2023-03-21T09:16:52;99718.22;;;15.86;61.86
41947;BME280;27638;42.184;24.848;2023-03-21T09:19:18;99718.88;;;15.94;61.69
41947;BME280;27638;42.184;24.848;2023-03-21T09:21:43;99708.19;;;15.94;62.23
41947;BME280;27638;42.184;24.848;2023-03-21T09:24:09;99709.00;;;15.95;62.00
41947;BME280;27638;42.184;24.848;2023-03-21T09:26:37;99711.91;;;16.00;61.77
41947;BME280;27638;42.184;24.848;2023-03-21T09:29:03;99710.94;;;16.08;61.65
41947;BME280;27638;42.184;24.848;2023-03-21T09:31:30;99711.78;;;16.15;61.82
41947;BME280;27638;42.184;24.848;2023-03-21T09:33:56;99708.09;;;16.22;61.76
41947;BME280;27638;42.184;24.848;2023-03-21T09:36:23;99710.59;;;16.31;60.20
41947;BME280;27638;42.184;24.848;2023-03-21T09:38:52;99699.31;;;16.35;59.88
41947;BME280;27638;42.184;24.848;2023-03-21T09:41:48;99710.47;;;16.45;59.63
41947;BME280;27638;42.184;24.848;2023-03-21T09:47:02;99703.28;;;16.59;58.75
41947;BME280;27638;42.184;24.848;2023-03-21T09:49:47;99698.44;;;16.69;58.61
41947;BME280;27638;42.184;24.848;2023-03-21T09:52:49;99700.94;;;16.77;59.52
41947;BME280;27638;42.184;24.848;2023-03-21T09:55:21;99700.13;;;16.90;58.11
41947;BME280;27638;42.184;24.848;2023-03-21T10:00:23;99693.56;;;17.12;56.80
41947;BME280;27638;42.184;24.848;2023-03-21T10:02:53;99702.00;;;17.16;57.84
41947;BME280;27638;42.184;24.848;2023-03-21T10:05:26;99689.84;;;17.20;56.00
41947;BME280;27638;42.184;24.848;2023-03-21T10:10:52;99675.44;;;17.01;56.01
41947;BME280;27638;42.184;24.848;2023-03-21T10:13:25;99676.69;;;17.05;56.39
41947;BME280;27638;42.184;24.848;2023-03-21T10:15:57;99674.00;;;17.12;56.47
41947;BME280;27638;42.184;24.848;2023-03-21T10:18:26;99676.47;;;17.00;57.01
41947;BME280;27638;42.184;24.848;2023-03-21T10:20:53;99676.28;;;17.08;57.00
41947;BME280;27638;42.184;24.848;2023-03-21T10:23:21;99676.47;;;17.20;56.87
41947;BME280;27638;42.184;24.848;2023-03-21T10:25:55;99670.91;;;17.28;56.29
41947;BME280;27638;42.184;24.848;2023-03-21T10:28:40;99665.75;;;17.33;55.74
41947;BME280;27638;42.184;24.848;2023-03-21T10:31:08;99659.38;;;16.81;56.47
41947;BME280;27638;42.184;24.848;2023-03-21T10:33:38;99664.53;;;16.76;56.86
41947;BME280;27638;42.184;24.848;2023-03-21T10:36:11;99661.22;;;16.68;57.39
41947;BME280;27638;42.184;24.848;2023-03-21T10:38:46;99661.66;;;16.78;56.95
41947;BME280;27638;42.184;24.848;2023-03-21T10:41:13;99656.94;;;16.93;56.12
41947;BME280;27638;42.184;24.848;2023-03-21T10:43:39;99649.53;;;17.08;55.62
41947;BME280;27638;42.184;24.848;2023-03-21T10:46:12;99636.16;;;17.08;55.67
41947;BME280;27638;42.184;24.848;2023-03-21T10:48:40;99636.16;;;17.02;56.78
41947;BME280;27638;42.184;24.848;2023-03-21T10:51:15;99642.31;;;17.15;55.93
41947;BME280;27638;42.184;24.848;2023-03-21T10:53:46;99640.66;;;17.28;55.17
41947;BME280;27638;42.184;24.848;2023-03-21T10:56:15;99637.56;;;17.31;54.83
41947;BME280;27638;42.184;24.848;2023-03-21T10:58:44;99630.16;;;17.33;53.76
41947;BME280;27638;42.184;24.848;2023-03-21T11:01:14;99619.44;;;17.33;54.33
41947;BME280;27638;42.184;24.848;2023-03-21T11:03:46;99622.16;;;17.13;56.75
41947;BME280;27638;42.184;24.848;2023-03-21T11:06:22;99614.72;;;17.15;55.68
41947;BME280;27638;42.184;24.848;2023-03-21T11:08:54;99598.06;;;17.19;56.01
41947;BME280;27638;42.184;24.848;2023-03-21T11:11:28;99599.06;;;17.25;55.95
41947;BME280;27638;42.184;24.848;2023-03-21T11:14:02;99590.00;;;17.33;56.73
41947;BME280;27638;42.184;24.848;2023-03-21T11:16:40;99603.41;;;17.13;57.11
41947;BME280;27638;42.184;24.848;2023-03-21T11:19:27;99595.97;;;17.28;56.38
41947;BME280;27638;42.184;24.848;2023-03-21T11:21:56;99578.25;;;17.40;56.88
41947;BME280;27638;42.184;24.848;2023-03-21T11:24:22;99575.78;;;17.39;57.47
41947;BME280;27638;42.184;24.848;2023-03-21T11:26:48;99559.53;;;17.34;57.24
41947;BME280;27638;42.184;24.848;2023-03-21T11:29:31;99550.88;;;17.38;57.38
41947;BME280;27638;42.184;24.848;2023-03-21T11:34:50;99550.47;;;17.35;57.83
41947;BME280;27638;42.184;24.848;2023-03-21T11:47:47;99544.94;;;17.23;57.79
41947;BME280;27638;42.184;24.848;2023-03-21T11:52:51;99542.13;;;16.91;58.97
41947;BME280;27638;42.184;24.848;2023-03-21T11:55:43;99532.22;;;17.12;58.08
41947;BME280;27638;42.184;24.848;2023-03-21T11:58:31;99539.22;;;17.06;59.61
41947;BME280;27638;42.184;24.848;2023-03-21T12:01:21;99534.91;;;17.05;58.81
41947;BME280;27638;42.184;24.848;2023-03-21T12:12:49;99516.31;;;17.30;58.52
41947;BME280;27638;42.184;24.848;2023-03-21T12:21:09;99502.22;;;16.97;60.12
41947;BME280;27638;42.184;24.848;2023-03-21T12:23:48;99499.28;;;17.11;60.51
41947;BME280;27638;42.184;24.848;2023-03-21T12:27:24;99499.25;;;17.24;59.62
41947;BME280;27638;42.184;24.848;2023-03-21T12:29:20;99500.88;;;17.26;60.91
41947;BME280;27638;42.184;24.848;2023-03-21T12:37:18;99489.63;;;17.04;60.78
41947;BME280;27638;42.184;24.848;2023-03-21T12:39:48;99489.63;;;17.04;61.44
41947;BME280;27638;42.184;24.848;2023-03-21T12:45:23;99464.34;;;17.00;60.99
41947;BME280;27638;42.184;24.848;2023-03-21T12:48:10;99461.22;;;17.09;61.14
41947;BME280;27638;42.184;24.848;2023-03-21T12:50:39;99458.16;;;16.99;61.57
41947;BME280;27638;42.184;24.848;2023-03-21T12:56:04;99452.22;;;16.97;61.49
41947;BME280;27638;42.184;24.848;2023-03-21T12:58:40;99455.94;;;16.89;60.96
41947;BME280;27638;42.184;24.848;2023-03-21T13:01:09;99454.03;;;17.03;63.09
41947;BME280;27638;42.184;24.848;2023-03-21T13:03:46;99457.97;;;17.01;62.40
41947;BME280;27638;42.184;24.848;2023-03-21T13:06:16;99455.69;;;17.04;62.56
41947;BME280;27638;42.184;24.848;2023-03-21T13:08:47;99458.56;;;17.03;61.07
41947;BME280;27638;42.184;24.848;2023-03-21T13:11:20;99452.22;;;16.97;59.80
41947;BME280;27638;42.184;24.848;2023-03-21T13:16:40;99449.72;;;17.02;59.90
41947;BME280;27638;42.184;24.848;2023-03-21T13:19:27;99440.84;;;17.08;59.60
41947;BME280;27638;42.184;24.848;2023-03-21T13:22:24;99449.13;;;16.94;60.50
41947;BME280;27638;42.184;24.848;2023-03-21T13:24:57;99447.06;;;17.02;60.51
41947;BME280;27638;42.184;24.848;2023-03-21T13:27:26;99441.72;;;16.96;60.60
41947;BME280;27638;42.184;24.848;2023-03-21T13:30:20;99435.56;;;16.95;59.61
41947;BME280;27638;42.184;24.848;2023-03-21T13:32:45;99438.97;;;17.15;60.28
41947;BME280;27638;42.184;24.848;2023-03-21T13:35:19;99432.44;;;17.05;59.22
41947;BME280;27638;42.184;24.848;2023-03-21T13:37:55;99436.31;;;17.15;59.67
41947;BME280;27638;42.184;24.848;2023-03-21T13:40:26;99426.59;;;17.21;59.72
41947;BME280;27638;42.184;24.848;2023-03-21T13:42:55;99425.63;;;17.09;60.23
41947;BME280;27638;42.184;24.848;2023-03-21T13:45:30;99414.34;;;17.00;60.64
41947;BME280;27638;42.184;24.848;2023-03-21T13:48:03;99420.22;;;17.22;60.57
41947;BME280;27638;42.184;24.848;2023-03-21T13:50:34;99417.72;;;17.27;60.04
41947;BME280;27638;42.184;24.848;2023-03-21T13:55:28;99404.09;;;17.35;60.70
41947;BME280;27638;42.184;24.848;2023-03-21T13:57:53;99406.59;;;17.30;61.19
41947;BME280;27638;42.184;24.848;2023-03-21T14:00:28;99398.13;;;17.33;62.54
41947;BME280;27638;42.184;24.848;2023-03-21T14:03:14;99396.94;;;17.29;61.46
41947;BME280;27638;42.184;24.848;2023-03-21T14:05:48;99395.50;;;17.27;60.81
41947;BME280;27638;42.184;24.848;2023-03-21T14:08:16;99393.22;;;17.30;60.69
41947;BME280;27638;42.184;24.848;2023-03-21T14:10:47;99392.19;;;17.31;62.64
41947;BME280;27638;42.184;24.848;2023-03-21T14:13:20;99386.63;;;17.33;61.63
41947;BME280;27638;42.184;24.848;2023-03-21T14:15:50;99377.97;;;17.31;61.76
41947;BME280;27638;42.184;24.848;2023-03-21T14:18:20;99374.09;;;17.27;61.23
41947;BME280;27638;42.184;24.848;2023-03-21T14:20:54;99384.38;;;17.30;61.56
41947;BME280;27638;42.184;24.848;2023-03-21T14:23:21;99386.09;;;17.11;61.29
41947;BME280;27638;42.184;24.848;2023-03-21T14:25:47;99382.00;;;17.08;62.22
41947;BME280;27638;42.184;24.848;2023-03-21T14:28:18;99392.69;;;17.08;62.91
41947;BME280;27638;42.184;24.848;2023-03-21T14:30:50;99385.44;;;17.22;62.57
41947;BME280;27638;42.184;24.848;2023-03-21T14:33:35;99383.34;;;17.31;63.40
41947;BME280;27638;42.184;24.848;2023-03-21T14:36:08;99377.72;;;17.39;63.26